createdAt,value
2022-11-08T00:01:18.087Z,0.00
2022-11-08T00:03:44.645Z,0.00
2022-11-08T00:06:29.712Z,0.00
2022-11-08T00:09:14.589Z,0.00
2022-11-08T00:11:59.643Z,0.00
2022-11-08T00:14:26.204Z,0.00
2022-11-08T00:16:52.775Z,0.00
2022-11-08T00:19:19.388Z,0.00
2022-11-08T00:21:45.972Z,0.00
2022-11-08T00:24:12.596Z,0.00
2022-11-08T00:26:39.252Z,0.00
2022-11-08T00:29:08.785Z,0.00
2022-11-08T00:31:35.387Z,0.00
2022-11-08T00:34:01.973Z,0.00
2022-11-08T00:36:28.670Z,0.00
2022-11-08T00:38:55.324Z,0.00
2022-11-08T00:41:21.938Z,0.00
2022-11-08T00:43:48.622Z,0.00
2022-11-08T00:46:21.658Z,0.00
2022-11-08T00:48:48.336Z,0.00
2022-11-08T00:51:14.967Z,0.00
2022-11-08T00:53:41.658Z,0.00
2022-11-08T00:56:11.296Z,0.00
2022-11-08T00:58:38.196Z,0.00
2022-11-08T01:01:12.618Z,0.00
2022-11-08T01:03:39.521Z,0.00
2022-11-08T01:06:08.392Z,0.00
2022-11-08T01:08:35.226Z,0.00
2022-11-08T01:11:04.077Z,0.00
2022-11-08T01:13:30.876Z,0.00
2022-11-08T01:15:57.847Z,0.00
2022-11-08T01:18:24.836Z,0.00
2022-11-08T01:20:51.487Z,0.00
2022-11-08T01:23:19.078Z,0.00
2022-11-08T01:25:47.170Z,0.00
2022-11-08T01:28:13.737Z,0.00
2022-11-08T01:30:41.546Z,0.00
2022-11-08T01:33:08.925Z,0.00
2022-11-08T01:35:36.629Z,0.00
2022-11-08T01:38:04.928Z,0.00
2022-11-08T01:40:32.123Z,0.00
2022-11-08T01:42:58.892Z,0.00
2022-11-08T01:46:03.171Z,0.00
2022-11-08T01:48:29.741Z,0.00
2022-11-08T01:50:57.728Z,0.00
2022-11-08T01:53:25.279Z,0.00
2022-11-08T01:55:52.878Z,0.00
2022-11-08T01:58:21.970Z,0.00
2022-11-08T02:00:48.669Z,0.00
2022-11-08T02:03:17.712Z,0.00
2022-11-08T02:05:44.656Z,0.00
2022-11-08T02:08:18.353Z,0.00
2022-11-08T02:10:48.105Z,0.00
2022-11-08T02:13:17.253Z,0.00
2022-11-08T02:15:44.038Z,0.00
2022-11-08T02:18:12.088Z,0.00
2022-11-08T02:20:59.290Z,0.00
2022-11-08T02:23:29.351Z,0.00
2022-11-08T02:25:56.208Z,0.00
2022-11-08T02:28:22.936Z,0.00
2022-11-08T02:30:49.553Z,0.00
2022-11-08T02:33:17.210Z,0.00
2022-11-08T02:35:52.113Z,0.00
2022-11-08T02:38:18.932Z,0.00
2022-11-08T02:40:49.777Z,0.00
2022-11-08T02:43:16.385Z,0.00
2022-11-08T02:45:43.317Z,0.00
2022-11-08T02:48:10.053Z,0.00
2022-11-08T02:50:36.838Z,0.00
2022-11-08T02:53:03.494Z,0.00
2022-11-08T02:55:30.278Z,0.00
2022-11-08T02:57:57.824Z,0.00
2022-11-08T03:00:24.556Z,0.00
2022-11-08T03:02:57.961Z,0.00
2022-11-08T03:05:26.250Z,0.00
2022-11-08T03:07:54.150Z,0.00
2022-11-08T03:10:22.651Z,0.00
2022-11-08T03:13:03.375Z,0.00
2022-11-08T03:15:30.139Z,0.00
2022-11-08T03:17:57.273Z,0.00
2022-11-08T03:20:27.144Z,0.00
2022-11-08T03:23:05.444Z,0.00
2022-11-08T03:25:32.365Z,0.00
2022-11-08T03:28:05.136Z,0.00
2022-11-08T03:30:32.115Z,0.00
2022-11-08T03:32:58.669Z,0.00
2022-11-08T03:35:25.311Z,0.00
2022-11-08T03:37:53.108Z,0.00
2022-11-08T03:40:20.260Z,0.00
2022-11-08T03:42:46.864Z,0.00
2022-11-08T03:45:14.989Z,0.00
2022-11-08T03:47:43.684Z,0.00
2022-11-08T03:50:11.405Z,0.00
2022-11-08T03:52:48.874Z,0.00
2022-11-08T03:55:16.653Z,0.00
2022-11-08T03:57:44.919Z,0.00
2022-11-08T04:00:13.070Z,0.00
2022-11-08T04:02:39.940Z,0.00
2022-11-08T04:05:08.411Z,0.00
2022-11-08T04:07:35.543Z,0.00
2022-11-08T04:10:03.211Z,0.00
2022-11-08T04:12:48.270Z,0.00
2022-11-08T04:15:16.897Z,0.00
2022-11-08T04:18:06.620Z,0.00
2022-11-08T04:20:52.415Z,0.00
2022-11-08T04:23:19.136Z,0.00
2022-11-08T04:25:45.875Z,0.00
2022-11-08T04:28:12.486Z,0.00
2022-11-08T04:30:39.042Z,0.00
2022-11-08T04:33:05.623Z,0.00
2022-11-08T04:35:32.229Z,0.00
2022-11-08T04:38:00.476Z,0.00
2022-11-08T04:40:28.346Z,0.00
2022-11-08T04:42:54.923Z,0.00
2022-11-08T04:45:21.713Z,0.00
2022-11-08T04:47:48.828Z,0.00
2022-11-08T04:50:15.659Z,0.00
2022-11-08T04:52:42.792Z,0.00
2022-11-08T04:55:09.640Z,0.00
2022-11-08T04:57:36.256Z,0.00
2022-11-08T05:00:03.046Z,0.00
2022-11-08T05:02:29.745Z,0.00
2022-11-08T05:04:57.765Z,0.00
2022-11-08T05:07:24.409Z,0.00
2022-11-08T05:09:50.995Z,0.00
2022-11-08T05:12:17.623Z,0.00
2022-11-08T05:14:44.187Z,0.00
2022-11-08T05:17:10.794Z,0.00
2022-11-08T05:19:55.973Z,0.00
2022-11-08T05:22:52.161Z,0.00
2022-11-08T05:25:18.747Z,0.00
2022-11-08T05:27:45.342Z,0.00
2022-11-08T05:30:12.219Z,0.00
2022-11-08T05:32:38.852Z,0.00
2022-11-08T05:35:06.124Z,0.00
2022-11-08T05:37:32.800Z,0.00
2022-11-08T05:39:59.362Z,0.00
2022-11-08T05:42:25.942Z,0.00
2022-11-08T05:44:52.558Z,0.00
2022-11-08T05:47:19.399Z,0.00
2022-11-08T05:49:45.997Z,0.00
2022-11-08T05:52:12.544Z,0.00
2022-11-08T05:54:39.141Z,0.00
2022-11-08T05:57:05.786Z,0.00
2022-11-08T05:59:32.337Z,0.00
2022-11-08T06:01:58.982Z,0.00
2022-11-08T06:04:25.663Z,0.00
2022-11-08T06:06:52.277Z,0.00
2022-11-08T06:09:18.858Z,0.00
2022-11-08T06:11:45.459Z,0.00
2022-11-08T06:14:12.977Z,0.00
2022-11-08T06:16:39.972Z,0.00
2022-11-08T06:19:06.621Z,0.00
2022-11-08T06:21:33.177Z,0.00
2022-11-08T06:23:59.972Z,0.00
2022-11-08T06:26:26.729Z,0.00
2022-11-08T06:28:53.400Z,0.00
2022-11-08T06:31:20.121Z,0.00
2022-11-08T06:33:46.792Z,0.00
2022-11-08T06:36:13.696Z,0.00
2022-11-08T06:38:40.271Z,0.00
2022-11-08T06:41:06.900Z,0.00
2022-11-08T06:43:34.032Z,0.00
2022-11-08T06:46:02.209Z,0.00
2022-11-08T06:48:35.108Z,0.00
2022-11-08T06:51:03.193Z,0.00
2022-11-08T06:53:29.871Z,0.00
2022-11-08T06:55:56.476Z,0.00
2022-11-08T06:58:23.078Z,0.00
2022-11-08T07:00:49.746Z,0.00
2022-11-08T07:03:17.427Z,0.00
2022-11-08T07:05:44.078Z,0.00
2022-11-08T07:08:10.985Z,0.00
2022-11-08T07:10:37.628Z,0.00
2022-11-08T07:13:06.924Z,0.00
2022-11-08T07:15:35.245Z,0.00
2022-11-08T07:18:07.911Z,0.00
2022-11-08T07:20:34.929Z,0.00
2022-11-08T07:23:01.706Z,0.00
2022-11-08T07:25:28.970Z,0.00
2022-11-08T07:27:56.885Z,0.00
2022-11-08T07:30:23.753Z,0.00
2022-11-08T07:32:50.514Z,0.00
2022-11-08T07:35:17.231Z,0.00
2022-11-08T07:37:43.815Z,0.00
2022-11-08T07:40:11.192Z,0.00
2022-11-08T07:43:04.626Z,0.00
2022-11-08T07:45:25.462Z,0.00
2022-11-08T07:48:09.558Z,0.00
2022-11-08T07:50:38.304Z,0.00
2022-11-08T07:53:05.067Z,0.00
2022-11-08T07:55:31.666Z,0.00
2022-11-08T07:58:01.988Z,0.00
2022-11-08T08:00:29.812Z,0.00
2022-11-08T08:03:08.340Z,0.00
2022-11-08T08:06:00.734Z,0.00
2022-11-08T08:08:33.102Z,0.00
2022-11-08T08:11:00.757Z,0.00
2022-11-08T08:13:27.936Z,0.00
2022-11-08T08:16:04.539Z,0.00
2022-11-08T08:18:31.338Z,0.00
2022-11-08T08:20:58.254Z,0.00
2022-11-08T08:23:35.471Z,0.00
2022-11-08T08:26:03.367Z,0.00
2022-11-08T08:28:30.229Z,0.00
2022-11-08T08:30:56.969Z,0.00
2022-11-08T08:33:28.843Z,0.00
2022-11-08T08:35:56.535Z,0.00
2022-11-08T08:38:23.258Z,0.00
2022-11-08T08:40:51.517Z,0.00
2022-11-08T08:43:20.019Z,0.00
2022-11-08T08:45:47.174Z,0.00
2022-11-08T08:48:13.900Z,0.00
2022-11-08T08:50:42.119Z,0.00
2022-11-08T08:53:10.296Z,0.00
2022-11-08T08:55:39.132Z,0.00
2022-11-08T08:58:05.890Z,0.00
2022-11-08T09:03:22.327Z,0.00
2022-11-08T09:05:49.129Z,0.00
2022-11-08T09:08:15.945Z,0.00
2022-11-08T09:10:43.247Z,0.00
2022-11-08T09:13:09.914Z,0.00
2022-11-08T09:15:40.966Z,0.00
2022-11-08T09:18:08.045Z,0.00
2022-11-08T09:24:54.278Z,0.00
2022-11-08T09:27:37.183Z,0.00
2022-11-08T09:30:07.795Z,0.00
2022-11-08T09:32:59.046Z,0.00
2022-11-08T09:35:56.235Z,0.00
2022-11-08T09:38:34.228Z,0.00
2022-11-08T09:41:19.454Z,0.00
2022-11-08T09:44:02.128Z,0.00
2022-11-08T09:46:41.271Z,0.00
2022-11-08T09:49:17.187Z,0.00
2022-11-08T09:51:43.980Z,0.00
2022-11-08T09:54:33.034Z,0.00
2022-11-08T09:57:56.255Z,0.00
2022-11-08T10:00:35.662Z,0.00
2022-11-08T10:04:15.107Z,0.00
2022-11-08T10:20:26.881Z,0.00
2022-11-08T10:27:03.322Z,0.00
2022-11-08T10:30:17.532Z,0.00
2022-11-08T10:32:57.441Z,0.00
2022-11-08T10:35:40.342Z,0.00
2022-11-08T10:38:22.721Z,0.00
2022-11-08T10:41:14.089Z,0.00
2022-11-08T10:43:53.719Z,0.00
2022-11-08T10:46:40.169Z,0.00
2022-11-08T10:49:14.623Z,0.00
2022-11-08T10:51:43.396Z,0.00
2022-11-08T10:54:48.593Z,0.00
2022-11-08T10:57:37.811Z,0.00
2022-11-08T11:00:23.350Z,0.00
2022-11-08T11:02:55.608Z,0.00
2022-11-08T11:05:42.170Z,0.00
2022-11-08T11:08:08.834Z,0.00
2022-11-08T11:10:37.944Z,0.00
2022-11-08T11:13:15.201Z,0.00
2022-11-08T11:15:55.379Z,0.00
2022-11-08T11:32:13.027Z,0.00
2022-11-08T11:39:49.596Z,0.00
2022-11-08T11:42:46.174Z,0.00
2022-11-08T12:07:05.522Z,0.00
2022-11-08T12:10:06.611Z,0.00
2022-11-08T12:12:54.617Z,0.00
2022-11-08T12:15:41.520Z,0.00
2022-11-08T12:18:41.107Z,0.00
2022-11-08T12:21:12.608Z,0.00
2022-11-08T12:24:16.451Z,0.00
2022-11-08T12:26:53.176Z,0.00
2022-11-08T12:29:30.086Z,0.00
2022-11-08T12:31:57.126Z,0.00
2022-11-08T12:34:30.142Z,0.00
2022-11-08T12:37:30.216Z,0.00
2022-11-08T12:40:01.374Z,0.00
2022-11-08T12:42:35.252Z,0.00
2022-11-08T12:45:43.447Z,0.00
2022-11-08T12:48:46.031Z,0.00
2022-11-08T12:51:47.747Z,0.00
2022-11-08T12:54:19.731Z,0.00
2022-11-08T12:56:48.528Z,0.00
2022-11-08T12:59:23.885Z,0.00
2022-11-08T13:01:50.870Z,0.00
2022-11-08T13:04:41.884Z,0.00
2022-11-08T13:07:26.799Z,0.00
2022-11-08T13:10:00.574Z,0.00
2022-11-08T13:12:55.178Z,0.00
2022-11-08T13:15:28.201Z,0.00
2022-11-08T13:18:07.262Z,0.00
2022-11-08T13:20:55.021Z,0.00
2022-11-08T13:23:31.517Z,0.00
2022-11-08T13:26:47.157Z,0.00
2022-11-08T13:29:40.533Z,0.00
2022-11-08T13:32:36.660Z,0.00
2022-11-08T13:35:11.855Z,0.00
2022-11-08T13:37:49.742Z,0.32
2022-11-08T13:40:25.457Z,2.38
2022-11-08T13:43:18.428Z,6.31
2022-11-08T13:45:45.343Z,2.33
2022-11-08T13:48:24.409Z,4.42
2022-11-08T13:50:53.193Z,1.55
2022-11-08T13:53:19.700Z,0.00
2022-11-08T13:55:50.996Z,1.60
2022-11-08T13:58:43.171Z,1.19
2022-11-08T14:01:34.716Z,0.00
2022-11-08T14:04:23.302Z,0.00
2022-11-08T14:06:52.834Z,0.35
2022-11-08T14:09:54.996Z,0.00
2022-11-08T14:13:00.706Z,0.02
2022-11-08T14:16:23.175Z,3.03
2022-11-08T14:18:49.910Z,2.52
2022-11-08T14:21:20.153Z,1.93
2022-11-08T14:23:50.083Z,5.57
2022-11-08T14:26:24.333Z,4.08
2022-11-08T14:28:52.162Z,4.44
2022-11-08T14:31:27.937Z,0.00
2022-11-08T14:33:55.676Z,0.00
2022-11-08T14:36:23.440Z,0.00
2022-11-08T14:38:52.948Z,0.00
2022-11-08T14:41:25.064Z,0.00
2022-11-08T14:43:53.388Z,0.00
2022-11-08T14:47:00.700Z,0.00
2022-11-08T14:49:40.552Z,0.00
2022-11-08T14:52:24.547Z,0.00
2022-11-08T14:55:07.139Z,0.00
2022-11-08T14:57:35.620Z,0.00
2022-11-08T15:00:21.934Z,0.00
2022-11-08T15:02:57.018Z,0.00
2022-11-08T15:05:26.777Z,0.00
2022-11-08T15:07:53.659Z,0.00
2022-11-08T15:10:20.560Z,0.00
2022-11-08T15:12:55.006Z,0.00
2022-11-08T15:15:34.717Z,0.00
2022-11-08T15:18:35.205Z,0.00
2022-11-08T15:29:21.440Z,0.00
2022-11-08T15:38:53.173Z,0.00
2022-11-08T15:44:23.377Z,0.00
2022-11-08T15:46:50.692Z,0.00
2022-11-08T15:49:22.958Z,0.00
2022-11-08T15:51:51.604Z,0.00
2022-11-08T15:54:19.324Z,0.00
2022-11-08T15:56:46.746Z,0.00
2022-11-08T16:02:47.943Z,0.00
2022-11-08T16:05:31.321Z,0.00
2022-11-08T16:08:00.608Z,0.00
2022-11-08T16:10:31.692Z,0.00
2022-11-08T16:17:21.603Z,0.00
2022-11-08T16:20:30.932Z,0.00
2022-11-08T16:22:58.922Z,0.00
2022-11-08T16:25:30.357Z,0.00
2022-11-08T16:29:03.100Z,0.00
2022-11-08T16:39:02.568Z,0.00
2022-11-08T16:42:03.099Z,0.00
2022-11-08T16:44:53.458Z,0.00
2022-11-08T16:51:46.166Z,0.00
2022-11-08T16:59:16.516Z,0.00
2022-11-08T17:01:46.498Z,0.00
2022-11-08T17:05:11.821Z,0.00
2022-11-08T17:07:41.735Z,0.00
2022-11-08T17:11:06.591Z,0.00
2022-11-08T17:13:50.946Z,0.00
2022-11-08T17:16:18.823Z,0.00
2022-11-08T17:18:51.268Z,0.00
2022-11-08T17:24:21.681Z,0.00
2022-11-08T17:26:49.841Z,0.00
2022-11-08T17:29:16.468Z,0.00
2022-11-08T17:31:43.206Z,0.00
2022-11-08T17:34:19.261Z,0.00
2022-11-08T17:36:46.345Z,0.00
2022-11-08T17:39:16.078Z,0.00
2022-11-08T17:41:50.344Z,0.00
2022-11-08T17:44:17.031Z,0.00
2022-11-08T17:46:43.932Z,0.00
2022-11-08T17:49:28.412Z,0.00
2022-11-08T17:52:01.518Z,0.00
2022-11-08T17:54:28.351Z,0.00
2022-11-08T17:56:55.065Z,0.00
2022-11-08T17:59:21.851Z,0.00
2022-11-08T18:01:48.675Z,0.00
2022-11-08T18:04:22.813Z,0.00
2022-11-08T18:06:49.638Z,0.00
2022-11-08T18:09:16.295Z,0.00
2022-11-08T18:11:48.908Z,0.00
2022-11-08T18:14:25.528Z,0.00
2022-11-08T18:16:55.941Z,0.00
2022-11-08T18:19:23.221Z,0.00
2022-11-08T18:21:50.070Z,0.00
2022-11-08T18:24:17.193Z,0.00
2022-11-08T18:26:44.129Z,0.00
2022-11-08T18:29:10.816Z,0.00
2022-11-08T18:31:40.241Z,0.00
2022-11-08T18:34:06.981Z,0.00
2022-11-08T18:36:33.824Z,0.00
2022-11-08T18:39:00.578Z,0.00
2022-11-08T18:41:29.712Z,0.00
2022-11-08T18:43:57.381Z,0.00
2022-11-08T18:46:25.544Z,0.00
2022-11-08T18:48:52.284Z,0.00
2022-11-08T18:51:21.578Z,0.00
2022-11-08T18:53:48.276Z,0.00
2022-11-08T18:56:16.217Z,0.00
2022-11-08T18:58:44.114Z,0.00
2022-11-08T19:01:11.285Z,0.00
2022-11-08T19:03:38.226Z,0.00
2022-11-08T19:06:05.235Z,0.00
2022-11-08T19:08:36.748Z,0.00
2022-11-08T19:11:08.902Z,0.00
2022-11-08T19:13:38.140Z,0.00
2022-11-08T19:16:13.269Z,0.00
2022-11-08T19:18:40.564Z,0.00
2022-11-08T19:21:11.394Z,0.00
2022-11-08T19:23:39.196Z,0.00
2022-11-08T19:26:20.483Z,0.00
2022-11-08T19:28:48.054Z,0.00
2022-11-08T19:31:18.504Z,0.00
2022-11-08T19:33:55.108Z,0.00
2022-11-08T19:36:28.837Z,0.00
2022-11-08T19:39:07.743Z,0.00
2022-11-08T19:41:35.142Z,0.00
2022-11-08T19:44:07.945Z,0.00
2022-11-08T19:46:52.648Z,0.00
2022-11-08T19:49:27.542Z,0.00
2022-11-08T19:51:54.830Z,0.00
2022-11-08T19:54:22.526Z,0.00
2022-11-08T19:57:05.772Z,0.00
2022-11-08T19:59:33.473Z,0.00
2022-11-08T20:02:00.844Z,0.00
2022-11-08T20:04:27.748Z,0.00
2022-11-08T20:06:54.885Z,0.00
2022-11-08T20:09:30.025Z,0.00
2022-11-08T20:11:57.787Z,0.00
2022-11-08T20:14:24.648Z,0.00
2022-11-08T20:16:58.870Z,0.00
2022-11-08T20:19:25.772Z,0.00
2022-11-08T20:21:55.676Z,0.00
2022-11-08T20:24:25.128Z,0.00
2022-11-08T20:26:51.874Z,0.00
2022-11-08T20:29:18.550Z,0.00
2022-11-08T20:31:45.779Z,0.00
2022-11-08T20:34:15.129Z,0.00
2022-11-08T20:36:44.557Z,0.00
2022-11-08T20:39:14.992Z,0.00
2022-11-08T20:41:44.280Z,0.00
2022-11-08T20:44:15.756Z,0.00
2022-11-08T20:46:44.904Z,0.00
2022-11-08T20:49:14.070Z,0.00
2022-11-08T20:51:48.000Z,0.00
2022-11-08T20:54:16.655Z,0.00
2022-11-08T20:56:45.859Z,0.00
2022-11-08T20:59:21.552Z,0.00
2022-11-08T21:01:48.387Z,0.00
2022-11-08T21:04:15.149Z,0.00
2022-11-08T21:06:47.484Z,0.00
2022-11-08T21:09:36.687Z,0.00
2022-11-08T21:12:00.989Z,0.00
2022-11-08T21:14:27.721Z,0.00
2022-11-08T21:19:48.359Z,0.00
2022-11-08T21:22:15.112Z,0.00
2022-11-08T21:24:42.734Z,0.00
2022-11-08T21:27:10.083Z,0.00
2022-11-08T21:29:36.723Z,0.00
2022-11-08T21:32:04.024Z,0.00
2022-11-08T21:34:32.614Z,0.00
2022-11-08T21:36:59.805Z,0.00
2022-11-08T21:39:26.593Z,0.00
2022-11-08T21:41:53.221Z,0.00
2022-11-08T21:44:20.367Z,0.00
2022-11-08T21:46:47.028Z,0.00
2022-11-08T21:49:13.813Z,0.00
2022-11-08T21:51:40.420Z,0.00
2022-11-08T21:54:07.086Z,0.00
2022-11-08T21:56:34.552Z,0.00
2022-11-08T21:59:02.131Z,0.00
2022-11-08T22:01:30.935Z,0.00
2022-11-08T22:03:59.027Z,0.00
2022-11-08T22:06:26.261Z,0.00
2022-11-08T22:08:53.031Z,0.00
2022-11-08T22:11:19.825Z,0.00
2022-11-08T22:13:46.401Z,0.00
2022-11-08T22:16:13.156Z,0.00
2022-11-08T22:21:38.525Z,0.00
2022-11-08T22:24:22.473Z,0.00
2022-11-08T22:26:50.821Z,0.00
2022-11-08T22:29:18.037Z,0.00
2022-11-08T22:31:45.159Z,0.00
2022-11-08T22:34:12.055Z,0.00
2022-11-08T22:36:44.389Z,0.00
2022-11-08T22:39:14.075Z,0.00
2022-11-08T22:41:41.027Z,0.00
2022-11-08T22:44:11.781Z,0.00
2022-11-08T22:46:39.609Z,0.00
2022-11-08T22:49:06.203Z,0.00
2022-11-08T22:51:32.822Z,0.00
2022-11-08T22:53:59.484Z,0.00
2022-11-08T22:56:26.074Z,0.00
2022-11-08T22:58:54.755Z,0.00
2022-11-08T23:01:21.396Z,0.00
2022-11-08T23:03:48.485Z,0.00
2022-11-08T23:06:15.728Z,0.00
2022-11-08T23:08:42.815Z,0.00
2022-11-08T23:11:28.832Z,0.00
2022-11-08T23:14:14.181Z,0.00
2022-11-08T23:16:43.230Z,0.00
2022-11-08T23:19:48.444Z,0.00
2022-11-08T23:22:35.193Z,0.00
2022-11-08T23:25:02.855Z,0.00
2022-11-08T23:27:48.166Z,0.00
2022-11-08T23:30:35.347Z,0.00
2022-11-08T23:33:03.075Z,0.00
2022-11-08T23:35:29.759Z,0.00
2022-11-08T23:37:56.435Z,0.00
2022-11-08T23:40:41.711Z,0.00
2022-11-08T23:43:37.641Z,0.00
2022-11-08T23:46:09.965Z,0.00
2022-11-08T23:48:37.577Z,0.00
2022-11-08T23:51:04.967Z,0.00
2022-11-08T23:53:33.322Z,0.00
2022-11-08T23:55:59.937Z,0.00
2022-11-08T23:58:26.739Z,0.00
